Terminal Aerodrome Forecast
Issued by NWS Brownsville, TX

Home | Current Version | Previous Version | Text Only | Print | Product List | Glossary On
Versions: 1 2 3 4 5 6 7 8 9 10 11 12 13 14 15 16 17 18 19 20 21 22 23 24 25 26
000
FTUS44 KBRO 030300 AAA
TAFMFE
TAF AMD
KMFE 030336Z 0304/0324 11010KT P6SM SHRA SCT040 OVC090
      TEMPO 0304/0306 VRB22G30KT 5SM +SHRA BKN025
     FM030600 12010KT P6SM SHRA SCT040 BKN060
      TEMPO 0306/0310 VRB22G30KT 4SM +SHRA BKN025
     FM031500 13015G20KT P6SM SHRA SCT030 BKN050
      TEMPO 0315/0319 5SM +TSRA BKN030CB=

USA.gov is the U.S. government's official web portal to all federal, state and local government web resources and services.